sensor_id;sensor_type;location;lat;lon;timestamp;temperature;humidity
12419;DHT22;6273;52.312;9.178;2022-09-03T00:01:36;16.00;99.90
12419;DHT22;6273;52.312;9.178;2022-09-03T00:04:09;16.00;99.90
12419;DHT22;6273;52.312;9.178;2022-09-03T00:06:44;15.90;99.90
12419;DHT22;6273;52.312;9.178;2022-09-03T00:09:14;15.80;99.90
12419;DHT22;6273;52.312;9.178;2022-09-03T00:14:38;15.80;99.90
12419;DHT22;6273;52.312;9.178;2022-09-03T00:17:16;15.80;99.90
12419;DHT22;6273;52.312;9.178;2022-09-03T00:19:54;15.90;99.90
12419;DHT22;6273;52.312;9.178;2022-09-03T00:22:31;16.00;99.90
12419;DHT22;6273;52.312;9.178;2022-09-03T00:24:58;16.10;99.90
12419;DHT22;6273;52.312;9.178;2022-09-03T00:27:27;16.00;99.90
12419;DHT22;6273;52.312;9.178;2022-09-03T00:30:10;16.00;99.90
12419;DHT22;6273;52.312;9.178;2022-09-03T00:35:19;16.00;99.90
12419;DHT22;6273;52.312;9.178;2022-09-03T00:37:47;15.90;99.90
12419;DHT22;6273;52.312;9.178;2022-09-03T00:40:31;15.80;99.90
12419;DHT22;6273;52.312;9.178;2022-09-03T00:43:08;15.80;99.90
12419;DHT22;6273;52.312;9.178;2022-09-03T00:45:43;15.70;99.90
12419;DHT22;6273;52.312;9.178;2022-09-03T00:51:08;15.70;99.90
12419;DHT22;6273;52.312;9.178;2022-09-03T00:53:44;15.50;99.90
12419;DHT22;6273;52.312;9.178;2022-09-03T00:59:44;15.10;99.90
12419;DHT22;6273;52.312;9.178;2022-09-03T01:02:51;14.90;99.90
12419;DHT22;6273;52.312;9.178;2022-09-03T01:08:08;14.50;99.90
12419;DHT22;6273;52.312;9.178;2022-09-03T01:13:23;14.20;99.90
12419;DHT22;6273;52.312;9.178;2022-09-03T01:16:02;14.10;99.90
12419;DHT22;6273;52.312;9.178;2022-09-03T01:29:14;13.90;99.90
12419;DHT22;6273;52.312;9.178;2022-09-03T01:32:07;13.80;99.90
12419;DHT22;6273;52.312;9.178;2022-09-03T01:35:17;13.90;99.90
12419;DHT22;6273;52.312;9.178;2022-09-03T01:43:43;13.90;99.90
12419;DHT22;6273;52.312;9.178;2022-09-03T01:46:23;13.80;99.90
12419;DHT22;6273;52.312;9.178;2022-09-03T01:52:06;13.70;99.90
12419;DHT22;6273;52.312;9.178;2022-09-03T01:54:45;13.70;99.90
12419;DHT22;6273;52.312;9.178;2022-09-03T02:02:36;13.60;99.90
12419;DHT22;6273;52.312;9.178;2022-09-03T02:05:14;13.60;99.90
12419;DHT22;6273;52.312;9.178;2022-09-03T02:07:47;13.60;99.90
12419;DHT22;6273;52.312;9.178;2022-09-03T02:10:22;13.60;99.90
12419;DHT22;6273;52.312;9.178;2022-09-03T02:12:57;13.60;99.90
12419;DHT22;6273;52.312;9.178;2022-09-03T02:15:25;13.60;99.90
12419;DHT22;6273;52.312;9.178;2022-09-03T02:17:54;13.60;99.90
12419;DHT22;6273;52.312;9.178;2022-09-03T02:20:24;13.60;99.90
12419;DHT22;6273;52.312;9.178;2022-09-03T02:22:51;13.70;99.90
12419;DHT22;6273;52.312;9.178;2022-09-03T02:25:19;13.60;99.90
12419;DHT22;6273;52.312;9.178;2022-09-03T02:27:47;13.70;99.90
12419;DHT22;6273;52.312;9.178;2022-09-03T02:30:14;13.70;99.90
12419;DHT22;6273;52.312;9.178;2022-09-03T02:32:40;13.70;99.90
12419;DHT22;6273;52.312;9.178;2022-09-03T02:35:06;13.60;99.90
12419;DHT22;6273;52.312;9.178;2022-09-03T02:37:32;13.60;99.90
12419;DHT22;6273;52.312;9.178;2022-09-03T02:39:57;13.60;99.90
12419;DHT22;6273;52.312;9.178;2022-09-03T02:42:23;13.60;99.90
12419;DHT22;6273;52.312;9.178;2022-09-03T02:44:56;13.60;99.90
12419;DHT22;6273;52.312;9.178;2022-09-03T02:47:28;13.60;99.90
12419;DHT22;6273;52.312;9.178;2022-09-03T02:49:55;13.70;99.90
12419;DHT22;6273;52.312;9.178;2022-09-03T02:52:21;13.70;99.90
12419;DHT22;6273;52.312;9.178;2022-09-03T02:54:47;13.70;99.90
12419;DHT22;6273;52.312;9.178;2022-09-03T02:57:14;13.70;99.90
12419;DHT22;6273;52.312;9.178;2022-09-03T02:59:41;13.70;99.90
12419;DHT22;6273;52.312;9.178;2022-09-03T03:02:11;13.70;99.90
12419;DHT22;6273;52.312;9.178;2022-09-03T03:04:37;13.70;99.90
12419;DHT22;6273;52.312;9.178;2022-09-03T03:07:04;13.70;99.90
12419;DHT22;6273;52.312;9.178;2022-09-03T03:09:30;13.70;99.90
12419;DHT22;6273;52.312;9.178;2022-09-03T03:11:55;13.60;99.90
12419;DHT22;6273;52.312;9.178;2022-09-03T03:14:21;13.60;99.90
12419;DHT22;6273;52.312;9.178;2022-09-03T03:16:48;13.70;99.90
12419;DHT22;6273;52.312;9.178;2022-09-03T03:19:14;13.70;99.90
12419;DHT22;6273;52.312;9.178;2022-09-03T03:21:40;13.70;99.90
12419;DHT22;6273;52.312;9.178;2022-09-03T03:24:06;13.70;99.90
12419;DHT22;6273;52.312;9.178;2022-09-03T03:26:32;13.70;99.90
12419;DHT22;6273;52.312;9.178;2022-09-03T03:28:59;13.70;99.90
12419;DHT22;6273;52.312;9.178;2022-09-03T03:31:25;13.60;99.90
12419;DHT22;6273;52.312;9.178;2022-09-03T03:33:53;13.60;99.90
12419;DHT22;6273;52.312;9.178;2022-09-03T03:36:20;13.60;99.90
12419;DHT22;6273;52.312;9.178;2022-09-03T03:38:46;13.60;99.90
12419;DHT22;6273;52.312;9.178;2022-09-03T03:41:18;13.60;99.90
12419;DHT22;6273;52.312;9.178;2022-09-03T03:43:45;13.50;99.90
12419;DHT22;6273;52.312;9.178;2022-09-03T03:46:12;13.40;99.90
12419;DHT22;6273;52.312;9.178;2022-09-03T03:48:38;13.40;99.90
12419;DHT22;6273;52.312;9.178;2022-09-03T03:51:05;13.40;99.90
12419;DHT22;6273;52.312;9.178;2022-09-03T03:53:32;13.30;99.90
12419;DHT22;6273;52.312;9.178;2022-09-03T03:56:05;13.30;99.90
12419;DHT22;6273;52.312;9.178;2022-09-03T03:58:32;13.30;99.90
12419;DHT22;6273;52.312;9.178;2022-09-03T04:01:06;13.20;99.90
12419;DHT22;6273;52.312;9.178;2022-09-03T04:03:32;13.20;99.90
12419;DHT22;6273;52.312;9.178;2022-09-03T04:05:59;13.20;99.90
12419;DHT22;6273;52.312;9.178;2022-09-03T04:08:28;13.20;99.90
12419;DHT22;6273;52.312;9.178;2022-09-03T04:10:57;13.20;99.90
12419;DHT22;6273;52.312;9.178;2022-09-03T04:13:23;13.10;99.90
12419;DHT22;6273;52.312;9.178;2022-09-03T04:15:49;13.10;99.90
12419;DHT22;6273;52.312;9.178;2022-09-03T04:18:14;13.10;99.90
12419;DHT22;6273;52.312;9.178;2022-09-03T04:20:40;13.10;99.90
12419;DHT22;6273;52.312;9.178;2022-09-03T04:23:06;13.10;99.90
12419;DHT22;6273;52.312;9.178;2022-09-03T04:25:32;13.00;99.90
12419;DHT22;6273;52.312;9.178;2022-09-03T04:27:58;13.00;99.90
12419;DHT22;6273;52.312;9.178;2022-09-03T04:30:27;13.00;99.90
12419;DHT22;6273;52.312;9.178;2022-09-03T04:32:52;13.00;99.90
12419;DHT22;6273;52.312;9.178;2022-09-03T04:35:19;13.00;99.90
12419;DHT22;6273;52.312;9.178;2022-09-03T04:37:46;13.00;99.90
12419;DHT22;6273;52.312;9.178;2022-09-03T04:40:12;13.00;99.90
12419;DHT22;6273;52.312;9.178;2022-09-03T04:42:38;13.00;99.90
12419;DHT22;6273;52.312;9.178;2022-09-03T04:45:04;13.00;99.90
12419;DHT22;6273;52.312;9.178;2022-09-03T04:47:29;13.00;99.90
12419;DHT22;6273;52.312;9.178;2022-09-03T04:49:55;13.00;99.90
12419;DHT22;6273;52.312;9.178;2022-09-03T04:52:21;13.00;99.90
12419;DHT22;6273;52.312;9.178;2022-09-03T04:54:47;13.00;99.90
12419;DHT22;6273;52.312;9.178;2022-09-03T04:57:12;13.00;99.90
12419;DHT22;6273;52.312;9.178;2022-09-03T04:59:38;13.00;99.90
12419;DHT22;6273;52.312;9.178;2022-09-03T05:02:05;13.00;99.90
12419;DHT22;6273;52.312;9.178;2022-09-03T05:04:32;13.00;99.90
12419;DHT22;6273;52.312;9.178;2022-09-03T05:06:58;13.00;99.90
12419;DHT22;6273;52.312;9.178;2022-09-03T05:09:24;13.10;99.90
12419;DHT22;6273;52.312;9.178;2022-09-03T05:11:49;13.10;99.90
12419;DHT22;6273;52.312;9.178;2022-09-03T05:14:15;13.10;99.90
12419;DHT22;6273;52.312;9.178;2022-09-03T05:16:40;13.20;99.90
12419;DHT22;6273;52.312;9.178;2022-09-03T05:19:06;13.20;99.90
12419;DHT22;6273;52.312;9.178;2022-09-03T05:21:33;13.30;99.90
12419;DHT22;6273;52.312;9.178;2022-09-03T05:24:03;13.40;99.90
12419;DHT22;6273;52.312;9.178;2022-09-03T05:26:31;13.50;99.90
12419;DHT22;6273;52.312;9.178;2022-09-03T05:28:59;13.70;99.90
12419;DHT22;6273;52.312;9.178;2022-09-03T05:31:27;14.10;99.90
12419;DHT22;6273;52.312;9.178;2022-09-03T05:33:56;15.10;99.90
12419;DHT22;6273;52.312;9.178;2022-09-03T05:36:23;16.20;99.90
12419;DHT22;6273;52.312;9.178;2022-09-03T05:38:50;17.30;99.90
12419;DHT22;6273;52.312;9.178;2022-09-03T05:41:18;18.60;99.90
12419;DHT22;6273;52.312;9.178;2022-09-03T05:43:47;19.40;99.90
12419;DHT22;6273;52.312;9.178;2022-09-03T05:46:20;20.40;99.90
12419;DHT22;6273;52.312;9.178;2022-09-03T05:48:45;21.60;99.90
12419;DHT22;6273;52.312;9.178;2022-09-03T05:51:15;22.20;99.90
12419;DHT22;6273;52.312;9.178;2022-09-03T05:53:43;23.30;99.90
12419;DHT22;6273;52.312;9.178;2022-09-03T05:56:14;24.50;99.90
12419;DHT22;6273;52.312;9.178;2022-09-03T05:58:48;24.80;99.90
12419;DHT22;6273;52.312;9.178;2022-09-03T06:01:23;25.30;99.00
12419;DHT22;6273;52.312;9.178;2022-09-03T06:03:58;25.40;98.40
12419;DHT22;6273;52.312;9.178;2022-09-03T06:06:25;25.70;96.90
12419;DHT22;6273;52.312;9.178;2022-09-03T06:08:56;25.80;96.40
12419;DHT22;6273;52.312;9.178;2022-09-03T06:11:23;25.20;96.40
12419;DHT22;6273;52.312;9.178;2022-09-03T06:13:57;24.30;96.80
12419;DHT22;6273;52.312;9.178;2022-09-03T06:16:23;24.30;97.70
12419;DHT22;6273;52.312;9.178;2022-09-03T06:18:49;24.80;97.50
12419;DHT22;6273;52.312;9.178;2022-09-03T06:21:15;25.20;96.40
12419;DHT22;6273;52.312;9.178;2022-09-03T06:23:41;24.90;96.40
12419;DHT22;6273;52.312;9.178;2022-09-03T06:26:11;25.00;96.30
12419;DHT22;6273;52.312;9.178;2022-09-03T06:28:39;25.30;96.10
12419;DHT22;6273;52.312;9.178;2022-09-03T06:31:06;25.60;95.40
12419;DHT22;6273;52.312;9.178;2022-09-03T06:33:34;25.80;95.10
12419;DHT22;6273;52.312;9.178;2022-09-03T06:36:02;26.10;94.80
12419;DHT22;6273;52.312;9.178;2022-09-03T06:38:33;26.40;94.00
12419;DHT22;6273;52.312;9.178;2022-09-03T06:41:01;26.90;93.30
12419;DHT22;6273;52.312;9.178;2022-09-03T06:43:28;26.90;93.30
12419;DHT22;6273;52.312;9.178;2022-09-03T06:46:06;26.90;92.50
12419;DHT22;6273;52.312;9.178;2022-09-03T06:48:34;26.60;92.40
12419;DHT22;6273;52.312;9.178;2022-09-03T06:51:02;26.30;92.60
12419;DHT22;6273;52.312;9.178;2022-09-03T06:53:30;25.80;92.90
12419;DHT22;6273;52.312;9.178;2022-09-03T06:55:58;26.20;93.40
12419;DHT22;6273;52.312;9.178;2022-09-03T07:00:53;28.70;94.20
12419;DHT22;6273;52.312;9.178;2022-09-03T07:03:24;28.90;90.40
12419;DHT22;6273;52.312;9.178;2022-09-03T07:05:50;29.70;90.00
12419;DHT22;6273;52.312;9.178;2022-09-03T07:08:16;30.30;86.80
12419;DHT22;6273;52.312;9.178;2022-09-03T07:10:45;30.60;85.90
12419;DHT22;6273;52.312;9.178;2022-09-03T07:15:38;32.00;99.90
12419;DHT22;6273;52.312;9.178;2022-09-03T07:18:05;32.30;84.50
12419;DHT22;6273;52.312;9.178;2022-09-03T07:20:31;32.40;78.10
12419;DHT22;6273;52.312;9.178;2022-09-03T07:22:56;32.20;90.50
12419;DHT22;6273;52.312;9.178;2022-09-03T07:25:23;31.90;81.20
12419;DHT22;6273;52.312;9.178;2022-09-03T07:27:50;31.40;94.30
12419;DHT22;6273;52.312;9.178;2022-09-03T07:30:16;31.30;93.90
12419;DHT22;6273;52.312;9.178;2022-09-03T07:32:47;31.50;95.30
12419;DHT22;6273;52.312;9.178;2022-09-03T07:35:16;31.50;94.70
12419;DHT22;6273;52.312;9.178;2022-09-03T07:37:43;30.40;80.30
12419;DHT22;6273;52.312;9.178;2022-09-03T07:40:09;29.50;83.50
12419;DHT22;6273;52.312;9.178;2022-09-03T07:42:36;29.70;87.00
12419;DHT22;6273;52.312;9.178;2022-09-03T07:45:08;30.10;86.00
12419;DHT22;6273;52.312;9.178;2022-09-03T07:47:45;29.10;86.20
12419;DHT22;6273;52.312;9.178;2022-09-03T07:50:11;28.90;84.00
12419;DHT22;6273;52.312;9.178;2022-09-03T07:52:37;28.20;79.70
12419;DHT22;6273;52.312;9.178;2022-09-03T07:55:02;27.20;81.50
12419;DHT22;6273;52.312;9.178;2022-09-03T07:57:29;27.60;84.30
12419;DHT22;6273;52.312;9.178;2022-09-03T07:59:54;27.80;82.60
12419;DHT22;6273;52.312;9.178;2022-09-03T08:02:20;28.30;82.50
12419;DHT22;6273;52.312;9.178;2022-09-03T08:04:46;28.70;81.50
12419;DHT22;6273;52.312;9.178;2022-09-03T08:07:11;29.20;80.30
12419;DHT22;6273;52.312;9.178;2022-09-03T08:09:37;29.50;80.50
12419;DHT22;6273;52.312;9.178;2022-09-03T08:12:03;29.50;79.20
12419;DHT22;6273;52.312;9.178;2022-09-03T08:14:28;29.70;80.40
12419;DHT22;6273;52.312;9.178;2022-09-03T08:16:56;30.00;80.00
12419;DHT22;6273;52.312;9.178;2022-09-03T08:19:24;30.30;77.40
12419;DHT22;6273;52.312;9.178;2022-09-03T08:21:50;29.10;78.00
12419;DHT22;6273;52.312;9.178;2022-09-03T08:24:17;29.10;80.00
12419;DHT22;6273;52.312;9.178;2022-09-03T08:26:45;29.20;80.10
12419;DHT22;6273;52.312;9.178;2022-09-03T08:29:11;29.10;80.10
12419;DHT22;6273;52.312;9.178;2022-09-03T08:31:36;29.20;80.90
12419;DHT22;6273;52.312;9.178;2022-09-03T08:34:05;28.10;81.40
12419;DHT22;6273;52.312;9.178;2022-09-03T08:36:33;28.30;83.00
12419;DHT22;6273;52.312;9.178;2022-09-03T08:39:00;28.00;81.50
12419;DHT22;6273;52.312;9.178;2022-09-03T08:41:42;28.10;82.30
12419;DHT22;6273;52.312;9.178;2022-09-03T08:49:57;28.10;79.70
12419;DHT22;6273;52.312;9.178;2022-09-03T08:52:31;26.50;82.80
12419;DHT22;6273;52.312;9.178;2022-09-03T08:55:27;26.60;85.80
12419;DHT22;6273;52.312;9.178;2022-09-03T09:00:59;25.10;85.90
12419;DHT22;6273;52.312;9.178;2022-09-03T09:14:38;24.10;90.90
12419;DHT22;6273;52.312;9.178;2022-09-03T09:22:54;24.00;91.50
12419;DHT22;6273;52.312;9.178;2022-09-03T09:25:23;22.90;92.20
12419;DHT22;6273;52.312;9.178;2022-09-03T09:28:03;22.60;92.90
12419;DHT22;6273;52.312;9.178;2022-09-03T09:30:31;22.40;94.00
12419;DHT22;6273;52.312;9.178;2022-09-03T09:32:57;22.60;93.70
12419;DHT22;6273;52.312;9.178;2022-09-03T09:35:24;22.30;93.40
12419;DHT22;6273;52.312;9.178;2022-09-03T09:37:55;22.30;93.80
12419;DHT22;6273;52.312;9.178;2022-09-03T09:40:42;22.20;95.80
12419;DHT22;6273;52.312;9.178;2022-09-03T09:43:17;22.20;94.50
12419;DHT22;6273;52.312;9.178;2022-09-03T09:45:47;22.10;95.50
12419;DHT22;6273;52.312;9.178;2022-09-03T09:48:21;22.00;95.60
12419;DHT22;6273;52.312;9.178;2022-09-03T09:50:47;21.90;95.10
12419;DHT22;6273;52.312;9.178;2022-09-03T09:53:16;21.80;95.60
12419;DHT22;6273;52.312;9.178;2022-09-03T09:55:53;22.00;97.00
12419;DHT22;6273;52.312;9.178;2022-09-03T09:58:20;22.20;95.50
12419;DHT22;6273;52.312;9.178;2022-09-03T10:01:11;22.30;96.50
12419;DHT22;6273;52.312;9.178;2022-09-03T10:03:52;22.70;95.70
12419;DHT22;6273;52.312;9.178;2022-09-03T10:06:22;22.70;94.90
12419;DHT22;6273;52.312;9.178;2022-09-03T10:09:13;22.50;95.90
12419;DHT22;6273;52.312;9.178;2022-09-03T10:11:44;22.70;95.30
12419;DHT22;6273;52.312;9.178;2022-09-03T10:14:23;22.50;94.50
12419;DHT22;6273;52.312;9.178;2022-09-03T10:16:58;22.60;94.70
12419;DHT22;6273;52.312;9.178;2022-09-03T10:19:35;22.70;94.80
12419;DHT22;6273;52.312;9.178;2022-09-03T10:22:15;22.50;94.90
12419;DHT22;6273;52.312;9.178;2022-09-03T10:24:58;22.30;94.70
12419;DHT22;6273;52.312;9.178;2022-09-03T10:27:23;22.40;95.40
12419;DHT22;6273;52.312;9.178;2022-09-03T10:29:50;22.60;94.40
12419;DHT22;6273;52.312;9.178;2022-09-03T10:35:03;22.40;95.60
12419;DHT22;6273;52.312;9.178;2022-09-03T10:37:46;22.40;95.90
12419;DHT22;6273;52.312;9.178;2022-09-03T10:40:28;22.70;94.60
12419;DHT22;6273;52.312;9.178;2022-09-03T10:44:15;22.60;94.50
12419;DHT22;6273;52.312;9.178;2022-09-03T10:46:26;22.70;94.80
12419;DHT22;6273;52.312;9.178;2022-09-03T10:49:19;23.00;94.70
12419;DHT22;6273;52.312;9.178;2022-09-03T10:51:53;23.00;95.40
12419;DHT22;6273;52.312;9.178;2022-09-03T10:54:46;23.00;94.40
12419;DHT22;6273;52.312;9.178;2022-09-03T10:57:31;22.80;94.40
12419;DHT22;6273;52.312;9.178;2022-09-03T11:00:07;23.00;94.80
12419;DHT22;6273;52.312;9.178;2022-09-03T11:02:56;23.10;94.30
12419;DHT22;6273;52.312;9.178;2022-09-03T11:05:32;23.10;94.50
12419;DHT22;6273;52.312;9.178;2022-09-03T11:10:56;22.70;94.80
12419;DHT22;6273;52.312;9.178;2022-09-03T11:13:36;22.90;95.00
12419;DHT22;6273;52.312;9.178;2022-09-03T11:16:25;23.20;94.80
12419;DHT22;6273;52.312;9.178;2022-09-03T11:19:00;23.40;94.20
12419;DHT22;6273;52.312;9.178;2022-09-03T11:21:29;23.60;93.90
12419;DHT22;6273;52.312;9.178;2022-09-03T11:26:45;23.50;94.10
12419;DHT22;6273;52.312;9.178;2022-09-03T11:30:04;23.60;94.00
12419;DHT22;6273;52.312;9.178;2022-09-03T11:35:16;23.50;93.90
12419;DHT22;6273;52.312;9.178;2022-09-03T11:38:03;23.70;93.60
12419;DHT22;6273;52.312;9.178;2022-09-03T11:40:37;23.70;92.50
12419;DHT22;6273;52.312;9.178;2022-09-03T11:48:50;23.70;92.40
12419;DHT22;6273;52.312;9.178;2022-09-03T11:53:54;23.60;91.80
12419;DHT22;6273;52.312;9.178;2022-09-03T11:56:20;23.50;91.90
12419;DHT22;6273;52.312;9.178;2022-09-03T12:01:52;23.70;91.70
12419;DHT22;6273;52.312;9.178;2022-09-03T12:04:30;23.60;91.90
12419;DHT22;6273;52.312;9.178;2022-09-03T12:13:02;23.60;93.30
12419;DHT22;6273;52.312;9.178;2022-09-03T12:18:01;24.00;92.50
12419;DHT22;6273;52.312;9.178;2022-09-03T12:21:07;24.10;92.30
12419;DHT22;6273;52.312;9.178;2022-09-03T12:26:07;24.10;92.30
12419;DHT22;6273;52.312;9.178;2022-09-03T12:28:36;24.00;92.50
12419;DHT22;6273;52.312;9.178;2022-09-03T12:31:08;24.00;92.90
12419;DHT22;6273;52.312;9.178;2022-09-03T12:33:41;23.90;92.80
12419;DHT22;6273;52.312;9.178;2022-09-03T12:36:08;23.90;92.50
12419;DHT22;6273;52.312;9.178;2022-09-03T12:38:34;24.20;93.10
12419;DHT22;6273;52.312;9.178;2022-09-03T12:41:00;24.40;91.90
12419;DHT22;6273;52.312;9.178;2022-09-03T12:43:27;24.50;91.90
12419;DHT22;6273;52.312;9.178;2022-09-03T12:45:53;24.50;91.20
12419;DHT22;6273;52.312;9.178;2022-09-03T12:48:20;24.50;91.10
12419;DHT22;6273;52.312;9.178;2022-09-03T12:50:47;24.60;91.30
12419;DHT22;6273;52.312;9.178;2022-09-03T12:53:24;24.40;90.50
12419;DHT22;6273;52.312;9.178;2022-09-03T12:55:58;24.30;90.50
12419;DHT22;6273;52.312;9.178;2022-09-03T13:06:13;24.50;90.20
12419;DHT22;6273;52.312;9.178;2022-09-03T13:11:09;24.80;89.40
12419;DHT22;6273;52.312;9.178;2022-09-03T13:13:36;24.70;88.70
12419;DHT22;6273;52.312;9.178;2022-09-03T13:24:27;24.30;90.70
12419;DHT22;6273;52.312;9.178;2022-09-03T13:30:13;24.40;89.10
12419;DHT22;6273;52.312;9.178;2022-09-03T13:46:52;24.40;87.40
12419;DHT22;6273;52.312;9.178;2022-09-03T13:55:53;23.90;87.50
12419;DHT22;6273;52.312;9.178;2022-09-03T14:03:35;23.60;89.10
12419;DHT22;6273;52.312;9.178;2022-09-03T14:06:08;23.60;87.70
12419;DHT22;6273;52.312;9.178;2022-09-03T14:09:11;23.60;87.70
12419;DHT22;6273;52.312;9.178;2022-09-03T14:20:12;23.40;87.80
12419;DHT22;6273;52.312;9.178;2022-09-03T14:25:52;23.70;88.50
12419;DHT22;6273;52.312;9.178;2022-09-03T14:28:40;23.80;87.50
12419;DHT22;6273;52.312;9.178;2022-09-03T14:36:51;23.70;87.70
12419;DHT22;6273;52.312;9.178;2022-09-03T14:39:46;23.70;88.40
12419;DHT22;6273;52.312;9.178;2022-09-03T14:45:59;23.70;88.90
12419;DHT22;6273;52.312;9.178;2022-09-03T14:56:31;23.40;87.40
12419;DHT22;6273;52.312;9.178;2022-09-03T14:59:33;23.40;87.90
12419;DHT22;6273;52.312;9.178;2022-09-03T15:05:05;23.70;88.60
12419;DHT22;6273;52.312;9.178;2022-09-03T15:10:50;23.70;87.80
12419;DHT22;6273;52.312;9.178;2022-09-03T15:16:17;23.50;86.40
12419;DHT22;6273;52.312;9.178;2022-09-03T15:19:04;23.60;87.50
12419;DHT22;6273;52.312;9.178;2022-09-03T15:24:35;23.70;85.70
12419;DHT22;6273;52.312;9.178;2022-09-03T15:27:06;23.50;85.80
12419;DHT22;6273;52.312;9.178;2022-09-03T15:38:00;23.40;86.70
12419;DHT22;6273;52.312;9.178;2022-09-03T15:40:46;23.50;87.30
12419;DHT22;6273;52.312;9.178;2022-09-03T15:43:30;23.50;86.80
12419;DHT22;6273;52.312;9.178;2022-09-03T15:45:59;23.60;87.30
12419;DHT22;6273;52.312;9.178;2022-09-03T15:48:50;23.70;87.00
12419;DHT22;6273;52.312;9.178;2022-09-03T15:51:26;23.50;86.20
12419;DHT22;6273;52.312;9.178;2022-09-03T15:53:54;23.50;88.60
12419;DHT22;6273;52.312;9.178;2022-09-03T15:56:38;23.50;87.70
12419;DHT22;6273;52.312;9.178;2022-09-03T15:59:20;23.60;86.80
12419;DHT22;6273;52.312;9.178;2022-09-03T16:05:00;23.50;86.70
12419;DHT22;6273;52.312;9.178;2022-09-03T16:15:20;23.40;87.10
12419;DHT22;6273;52.312;9.178;2022-09-03T16:17:56;23.30;87.70
12419;DHT22;6273;52.312;9.178;2022-09-03T16:28:58;23.30;87.60
12419;DHT22;6273;52.312;9.178;2022-09-03T16:37:28;23.10;85.80
12419;DHT22;6273;52.312;9.178;2022-09-03T16:40:19;23.00;86.70
12419;DHT22;6273;52.312;9.178;2022-09-03T16:43:06;23.00;86.70
12419;DHT22;6273;52.312;9.178;2022-09-03T16:51:12;22.90;86.50
12419;DHT22;6273;52.312;9.178;2022-09-03T16:56:57;22.80;85.00
12419;DHT22;6273;52.312;9.178;2022-09-03T17:10:41;22.40;85.60
12419;DHT22;6273;52.312;9.178;2022-09-03T17:18:57;22.30;85.00
12419;DHT22;6273;52.312;9.178;2022-09-03T17:21:32;22.20;85.60
12419;DHT22;6273;52.312;9.178;2022-09-03T17:29:39;22.00;85.70
12419;DHT22;6273;52.312;9.178;2022-09-03T17:40:52;21.80;85.90
12419;DHT22;6273;52.312;9.178;2022-09-03T17:43:51;21.70;86.20
12419;DHT22;6273;52.312;9.178;2022-09-03T17:49:22;21.50;86.50
12419;DHT22;6273;52.312;9.178;2022-09-03T17:51:57;21.50;86.80
12419;DHT22;6273;52.312;9.178;2022-09-03T17:54:46;21.40;86.80
12419;DHT22;6273;52.312;9.178;2022-09-03T17:57:17;21.30;87.10
12419;DHT22;6273;52.312;9.178;2022-09-03T18:00:04;21.30;87.40
12419;DHT22;6273;52.312;9.178;2022-09-03T18:02:50;21.20;87.80
12419;DHT22;6273;52.312;9.178;2022-09-03T18:05:27;21.10;88.10
12419;DHT22;6273;52.312;9.178;2022-09-03T18:08:13;21.00;88.00
12419;DHT22;6273;52.312;9.178;2022-09-03T18:11:00;21.00;88.40
12419;DHT22;6273;52.312;9.178;2022-09-03T18:16:06;20.90;88.50
12419;DHT22;6273;52.312;9.178;2022-09-03T18:18:41;20.80;88.70
12419;DHT22;6273;52.312;9.178;2022-09-03T18:21:11;20.80;88.90
12419;DHT22;6273;52.312;9.178;2022-09-03T18:24:26;20.70;89.40
12419;DHT22;6273;52.312;9.178;2022-09-03T18:30:08;20.50;89.60
12419;DHT22;6273;52.312;9.178;2022-09-03T18:32:52;20.50;89.90
12419;DHT22;6273;52.312;9.178;2022-09-03T18:35:36;20.40;90.00
12419;DHT22;6273;52.312;9.178;2022-09-03T18:38:32;20.30;90.20
12419;DHT22;6273;52.312;9.178;2022-09-03T18:44:33;20.20;90.40
12419;DHT22;6273;52.312;9.178;2022-09-03T18:50:40;20.10;90.60
12419;DHT22;6273;52.312;9.178;2022-09-03T18:54:02;20.00;90.70
12419;DHT22;6273;52.312;9.178;2022-09-03T18:56:52;19.90;90.90
12419;DHT22;6273;52.312;9.178;2022-09-03T19:02:46;19.80;91.20
12419;DHT22;6273;52.312;9.178;2022-09-03T19:09:40;19.60;91.90
12419;DHT22;6273;52.312;9.178;2022-09-03T19:15:16;19.40;92.20
12419;DHT22;6273;52.312;9.178;2022-09-03T19:18:45;19.30;92.80
12419;DHT22;6273;52.312;9.178;2022-09-03T19:21:55;19.20;92.80
12419;DHT22;6273;52.312;9.178;2022-09-03T19:24:39;19.10;93.30
12419;DHT22;6273;52.312;9.178;2022-09-03T19:27:36;19.00;93.70
12419;DHT22;6273;52.312;9.178;2022-09-03T19:30:30;19.00;93.20
12419;DHT22;6273;52.312;9.178;2022-09-03T19:33:23;18.90;93.30
12419;DHT22;6273;52.312;9.178;2022-09-03T19:39:31;18.80;93.50
12419;DHT22;6273;52.312;9.178;2022-09-03T19:48:18;18.50;94.70
12419;DHT22;6273;52.312;9.178;2022-09-03T19:51:24;18.40;94.80
12419;DHT22;6273;52.312;9.178;2022-09-03T19:54:13;18.30;94.80
12419;DHT22;6273;52.312;9.178;2022-09-03T19:56:58;18.20;95.40
12419;DHT22;6273;52.312;9.178;2022-09-03T19:59:44;18.20;96.00
12419;DHT22;6273;52.312;9.178;2022-09-03T20:02:32;18.10;97.00
12419;DHT22;6273;52.312;9.178;2022-09-03T20:05:19;18.00;97.70
12419;DHT22;6273;52.312;9.178;2022-09-03T20:08:05;17.90;98.80
12419;DHT22;6273;52.312;9.178;2022-09-03T20:10:52;17.80;98.50
12419;DHT22;6273;52.312;9.178;2022-09-03T20:13:20;17.80;98.70
12419;DHT22;6273;52.312;9.178;2022-09-03T20:16:18;17.80;99.60
12419;DHT22;6273;52.312;9.178;2022-09-03T20:30:05;17.20;99.90
12419;DHT22;6273;52.312;9.178;2022-09-03T20:35:49;17.20;99.90
12419;DHT22;6273;52.312;9.178;2022-09-03T20:53:00;16.80;99.90
12419;DHT22;6273;52.312;9.178;2022-09-03T20:55:40;16.80;99.90
12419;DHT22;6273;52.312;9.178;2022-09-03T21:00:51;16.80;99.90
12419;DHT22;6273;52.312;9.178;2022-09-03T21:09:02;16.80;99.90
12419;DHT22;6273;52.312;9.178;2022-09-03T21:11:46;16.80;99.90
12419;DHT22;6273;52.312;9.178;2022-09-03T21:20:23;16.90;99.90
12419;DHT22;6273;52.312;9.178;2022-09-03T21:23:21;16.90;99.90
12419;DHT22;6273;52.312;9.178;2022-09-03T21:25:56;17.00;99.90
12419;DHT22;6273;52.312;9.178;2022-09-03T21:28:37;17.00;99.90
12419;DHT22;6273;52.312;9.178;2022-09-03T21:31:20;17.20;99.90
12419;DHT22;6273;52.312;9.178;2022-09-03T21:33:51;17.20;99.90
12419;DHT22;6273;52.312;9.178;2022-09-03T21:36:30;17.20;99.90
12419;DHT22;6273;52.312;9.178;2022-09-03T21:39:08;17.30;99.90
12419;DHT22;6273;52.312;9.178;2022-09-03T21:47:17;17.40;99.90
12419;DHT22;6273;52.312;9.178;2022-09-03T21:52:54;17.50;99.90
12419;DHT22;6273;52.312;9.178;2022-09-03T21:56:35;17.40;99.90
12419;DHT22;6273;52.312;9.178;2022-09-03T22:01:38;17.30;99.90
12419;DHT22;6273;52.312;9.178;2022-09-03T22:04:08;17.20;99.90
12419;DHT22;6273;52.312;9.178;2022-09-03T22:07:02;17.20;99.90
12419;DHT22;6273;52.312;9.178;2022-09-03T22:09:31;17.20;99.90
12419;DHT22;6273;52.312;9.178;2022-09-03T22:14:46;17.00;99.90
12419;DHT22;6273;52.312;9.178;2022-09-03T22:20:08;17.00;99.90
12419;DHT22;6273;52.312;9.178;2022-09-03T22:27:59;16.80;99.90
12419;DHT22;6273;52.312;9.178;2022-09-03T22:31:05;16.70;99.90
12419;DHT22;6273;52.312;9.178;2022-09-03T22:33:37;16.80;99.90
12419;DHT22;6273;52.312;9.178;2022-09-03T22:36:17;16.80;99.90
12419;DHT22;6273;52.312;9.178;2022-09-03T22:41:57;16.70;99.90